sensor_id;sensor_type;location;lat;lon;timestamp;temperature;humidity
6270;DHT22;3168;51.684;6.954;2023-05-10T00:00:10;13.70;99.90
6270;DHT22;3168;51.684;6.954;2023-05-10T00:02:36;13.70;99.90
6270;DHT22;3168;51.684;6.954;2023-05-10T00:05:02;13.60;99.90
6270;DHT22;3168;51.684;6.954;2023-05-10T00:07:28;13.60;99.90
6270;DHT22;3168;51.684;6.954;2023-05-10T00:09:54;13.60;99.90
6270;DHT22;3168;51.684;6.954;2023-05-10T00:12:19;13.60;99.90
6270;DHT22;3168;51.684;6.954;2023-05-10T00:14:45;13.60;99.90
6270;DHT22;3168;51.684;6.954;2023-05-10T00:17:11;13.60;99.90
6270;DHT22;3168;51.684;6.954;2023-05-10T00:19:37;13.60;99.90
6270;DHT22;3168;51.684;6.954;2023-05-10T00:22:03;13.60;99.90
6270;DHT22;3168;51.684;6.954;2023-05-10T00:24:29;13.70;99.90
6270;DHT22;3168;51.684;6.954;2023-05-10T00:26:54;13.60;99.90
6270;DHT22;3168;51.684;6.954;2023-05-10T00:29:20;13.60;99.90
6270;DHT22;3168;51.684;6.954;2023-05-10T00:31:46;13.60;99.90
6270;DHT22;3168;51.684;6.954;2023-05-10T00:34:12;13.50;99.90
6270;DHT22;3168;51.684;6.954;2023-05-10T00:36:38;13.60;99.90
6270;DHT22;3168;51.684;6.954;2023-05-10T00:39:03;13.50;99.90
6270;DHT22;3168;51.684;6.954;2023-05-10T00:41:29;13.50;99.90
6270;DHT22;3168;51.684;6.954;2023-05-10T00:43:55;13.50;99.90
6270;DHT22;3168;51.684;6.954;2023-05-10T00:46:21;13.30;99.90
6270;DHT22;3168;51.684;6.954;2023-05-10T00:48:47;13.40;99.90
6270;DHT22;3168;51.684;6.954;2023-05-10T00:51:13;13.30;99.90
6270;DHT22;3168;51.684;6.954;2023-05-10T00:53:38;13.30;99.90
6270;DHT22;3168;51.684;6.954;2023-05-10T00:56:04;13.30;99.90
6270;DHT22;3168;51.684;6.954;2023-05-10T00:58:30;13.20;99.90
6270;DHT22;3168;51.684;6.954;2023-05-10T01:00:56;13.20;99.90
6270;DHT22;3168;51.684;6.954;2023-05-10T01:03:22;13.20;99.90
6270;DHT22;3168;51.684;6.954;2023-05-10T01:05:48;13.10;99.90
6270;DHT22;3168;51.684;6.954;2023-05-10T01:08:13;13.10;99.90
6270;DHT22;3168;51.684;6.954;2023-05-10T01:10:39;13.00;99.90
6270;DHT22;3168;51.684;6.954;2023-05-10T01:13:05;13.10;99.90
6270;DHT22;3168;51.684;6.954;2023-05-10T01:15:32;13.00;99.90
6270;DHT22;3168;51.684;6.954;2023-05-10T01:17:57;13.00;99.90
6270;DHT22;3168;51.684;6.954;2023-05-10T01:20:23;13.00;99.90
6270;DHT22;3168;51.684;6.954;2023-05-10T01:22:55;12.90;99.90
6270;DHT22;3168;51.684;6.954;2023-05-10T01:25:32;12.90;99.90
6270;DHT22;3168;51.684;6.954;2023-05-10T01:28:15;12.80;99.90
6270;DHT22;3168;51.684;6.954;2023-05-10T01:31:03;12.80;99.90
6270;DHT22;3168;51.684;6.954;2023-05-10T01:36:03;12.90;99.90
6270;DHT22;3168;51.684;6.954;2023-05-10T01:38:33;12.80;99.90
6270;DHT22;3168;51.684;6.954;2023-05-10T01:41:13;12.70;99.90
6270;DHT22;3168;51.684;6.954;2023-05-10T01:43:37;12.80;99.90
6270;DHT22;3168;51.684;6.954;2023-05-10T01:46:09;12.80;99.90
6270;DHT22;3168;51.684;6.954;2023-05-10T01:48:37;12.80;99.90
6270;DHT22;3168;51.684;6.954;2023-05-10T01:51:02;12.90;99.90
6270;DHT22;3168;51.684;6.954;2023-05-10T01:53:28;13.00;99.90
6270;DHT22;3168;51.684;6.954;2023-05-10T01:55:54;13.00;99.90
6270;DHT22;3168;51.684;6.954;2023-05-10T01:58:25;13.00;99.90
6270;DHT22;3168;51.684;6.954;2023-05-10T02:00:49;13.00;99.90
6270;DHT22;3168;51.684;6.954;2023-05-10T02:03:15;13.10;99.90
6270;DHT22;3168;51.684;6.954;2023-05-10T02:05:41;13.20;99.90
6270;DHT22;3168;51.684;6.954;2023-05-10T02:08:07;13.20;99.90
6270;DHT22;3168;51.684;6.954;2023-05-10T02:10:34;13.20;99.90
6270;DHT22;3168;51.684;6.954;2023-05-10T02:12:59;13.10;99.90
6270;DHT22;3168;51.684;6.954;2023-05-10T02:15:25;13.20;99.90
6270;DHT22;3168;51.684;6.954;2023-05-10T02:17:51;13.10;99.90
6270;DHT22;3168;51.684;6.954;2023-05-10T02:20:16;13.10;99.90
6270;DHT22;3168;51.684;6.954;2023-05-10T02:22:42;13.20;99.90
6270;DHT22;3168;51.684;6.954;2023-05-10T02:25:08;13.20;99.90
6270;DHT22;3168;51.684;6.954;2023-05-10T02:27:34;13.20;99.90
6270;DHT22;3168;51.684;6.954;2023-05-10T02:30:00;13.10;99.90
6270;DHT22;3168;51.684;6.954;2023-05-10T02:32:26;13.00;99.90
6270;DHT22;3168;51.684;6.954;2023-05-10T02:34:52;13.10;99.90
6270;DHT22;3168;51.684;6.954;2023-05-10T02:37:19;13.10;99.90
6270;DHT22;3168;51.684;6.954;2023-05-10T02:39:44;13.10;99.90
6270;DHT22;3168;51.684;6.954;2023-05-10T02:42:11;13.00;99.90
6270;DHT22;3168;51.684;6.954;2023-05-10T02:44:36;13.10;99.90
6270;DHT22;3168;51.684;6.954;2023-05-10T02:47:01;13.00;99.90
6270;DHT22;3168;51.684;6.954;2023-05-10T02:49:27;13.10;99.90
6270;DHT22;3168;51.684;6.954;2023-05-10T02:51:56;13.10;99.90
6270;DHT22;3168;51.684;6.954;2023-05-10T02:54:19;13.00;99.90
6270;DHT22;3168;51.684;6.954;2023-05-10T02:56:50;13.00;99.90
6270;DHT22;3168;51.684;6.954;2023-05-10T02:59:13;12.90;99.90
6270;DHT22;3168;51.684;6.954;2023-05-10T03:01:39;13.10;99.90
6270;DHT22;3168;51.684;6.954;2023-05-10T03:04:05;13.00;99.90
6270;DHT22;3168;51.684;6.954;2023-05-10T03:06:31;13.10;99.90
6270;DHT22;3168;51.684;6.954;2023-05-10T03:08:56;13.10;99.90
6270;DHT22;3168;51.684;6.954;2023-05-10T03:11:34;13.10;99.90
6270;DHT22;3168;51.684;6.954;2023-05-10T03:16:56;13.20;99.90
6270;DHT22;3168;51.684;6.954;2023-05-10T03:19:24;13.10;99.90
6270;DHT22;3168;51.684;6.954;2023-05-10T03:21:49;13.20;99.90
6270;DHT22;3168;51.684;6.954;2023-05-10T03:24:14;13.10;99.90
6270;DHT22;3168;51.684;6.954;2023-05-10T03:26:40;13.20;99.90
6270;DHT22;3168;51.684;6.954;2023-05-10T03:29:06;13.10;99.90
6270;DHT22;3168;51.684;6.954;2023-05-10T03:31:32;13.00;99.90
6270;DHT22;3168;51.684;6.954;2023-05-10T03:33:57;13.10;99.90
6270;DHT22;3168;51.684;6.954;2023-05-10T03:36:23;13.30;99.90
6270;DHT22;3168;51.684;6.954;2023-05-10T03:38:49;13.20;99.90
6270;DHT22;3168;51.684;6.954;2023-05-10T03:41:15;13.10;99.90
6270;DHT22;3168;51.684;6.954;2023-05-10T03:43:41;13.10;99.90
6270;DHT22;3168;51.684;6.954;2023-05-10T03:46:07;13.00;99.90
6270;DHT22;3168;51.684;6.954;2023-05-10T03:48:33;13.10;99.90
6270;DHT22;3168;51.684;6.954;2023-05-10T03:50:58;13.10;99.90
6270;DHT22;3168;51.684;6.954;2023-05-10T03:53:24;13.10;99.90
6270;DHT22;3168;51.684;6.954;2023-05-10T03:55:50;13.20;99.90
6270;DHT22;3168;51.684;6.954;2023-05-10T03:58:16;13.20;99.90
6270;DHT22;3168;51.684;6.954;2023-05-10T04:00:42;13.10;99.90
6270;DHT22;3168;51.684;6.954;2023-05-10T04:03:09;13.10;99.90
6270;DHT22;3168;51.684;6.954;2023-05-10T04:05:35;13.10;99.90
6270;DHT22;3168;51.684;6.954;2023-05-10T04:08:01;13.10;99.90
6270;DHT22;3168;51.684;6.954;2023-05-10T04:10:27;13.00;99.90
6270;DHT22;3168;51.684;6.954;2023-05-10T04:12:52;13.00;99.90
6270;DHT22;3168;51.684;6.954;2023-05-10T04:15:18;13.10;99.90
6270;DHT22;3168;51.684;6.954;2023-05-10T04:17:44;13.20;99.90
6270;DHT22;3168;51.684;6.954;2023-05-10T04:20:11;13.20;99.90
6270;DHT22;3168;51.684;6.954;2023-05-10T04:22:37;13.20;99.90
6270;DHT22;3168;51.684;6.954;2023-05-10T04:25:03;13.10;99.90
6270;DHT22;3168;51.684;6.954;2023-05-10T04:27:29;13.20;99.90
6270;DHT22;3168;51.684;6.954;2023-05-10T04:29:54;13.20;99.90
6270;DHT22;3168;51.684;6.954;2023-05-10T04:32:20;13.20;99.90
6270;DHT22;3168;51.684;6.954;2023-05-10T04:34:46;13.10;99.90
6270;DHT22;3168;51.684;6.954;2023-05-10T04:37:12;13.10;99.90
6270;DHT22;3168;51.684;6.954;2023-05-10T04:39:38;13.10;99.90
6270;DHT22;3168;51.684;6.954;2023-05-10T04:42:04;13.10;99.90
6270;DHT22;3168;51.684;6.954;2023-05-10T04:44:30;13.20;99.90
6270;DHT22;3168;51.684;6.954;2023-05-10T04:46:55;13.20;99.90
6270;DHT22;3168;51.684;6.954;2023-05-10T04:49:21;13.20;99.90
6270;DHT22;3168;51.684;6.954;2023-05-10T04:51:47;13.20;99.90
6270;DHT22;3168;51.684;6.954;2023-05-10T04:54:13;13.20;99.90
6270;DHT22;3168;51.684;6.954;2023-05-10T04:56:39;13.20;99.90
6270;DHT22;3168;51.684;6.954;2023-05-10T04:59:04;13.20;99.90
6270;DHT22;3168;51.684;6.954;2023-05-10T05:01:30;13.20;99.90
6270;DHT22;3168;51.684;6.954;2023-05-10T05:03:56;13.10;99.90
6270;DHT22;3168;51.684;6.954;2023-05-10T05:06:22;13.10;99.90
6270;DHT22;3168;51.684;6.954;2023-05-10T05:08:48;13.10;99.90
6270;DHT22;3168;51.684;6.954;2023-05-10T05:11:13;13.10;99.90
6270;DHT22;3168;51.684;6.954;2023-05-10T05:13:39;13.10;99.90
6270;DHT22;3168;51.684;6.954;2023-05-10T05:16:05;13.10;99.90
6270;DHT22;3168;51.684;6.954;2023-05-10T05:18:31;13.10;99.90
6270;DHT22;3168;51.684;6.954;2023-05-10T05:20:57;13.20;99.90
6270;DHT22;3168;51.684;6.954;2023-05-10T05:23:23;13.10;99.90
6270;DHT22;3168;51.684;6.954;2023-05-10T05:25:49;13.10;99.90
6270;DHT22;3168;51.684;6.954;2023-05-10T05:28:15;13.00;99.90
6270;DHT22;3168;51.684;6.954;2023-05-10T05:30:41;13.00;99.90
6270;DHT22;3168;51.684;6.954;2023-05-10T05:33:07;13.10;99.90
6270;DHT22;3168;51.684;6.954;2023-05-10T05:35:33;13.10;99.90
6270;DHT22;3168;51.684;6.954;2023-05-10T05:37:58;13.20;99.90
6270;DHT22;3168;51.684;6.954;2023-05-10T05:40:24;13.10;99.90
6270;DHT22;3168;51.684;6.954;2023-05-10T05:42:50;13.00;99.90
6270;DHT22;3168;51.684;6.954;2023-05-10T05:45:16;13.00;99.90
6270;DHT22;3168;51.684;6.954;2023-05-10T05:47:42;13.10;99.90
6270;DHT22;3168;51.684;6.954;2023-05-10T05:50:09;13.10;99.90
6270;DHT22;3168;51.684;6.954;2023-05-10T05:52:35;13.10;99.90
6270;DHT22;3168;51.684;6.954;2023-05-10T05:55:01;13.20;99.90
6270;DHT22;3168;51.684;6.954;2023-05-10T05:57:27;13.20;99.90
6270;DHT22;3168;51.684;6.954;2023-05-10T05:59:53;13.20;99.90
6270;DHT22;3168;51.684;6.954;2023-05-10T06:02:19;13.20;99.90
6270;DHT22;3168;51.684;6.954;2023-05-10T06:04:44;13.30;99.90
6270;DHT22;3168;51.684;6.954;2023-05-10T06:07:10;13.40;99.90
6270;DHT22;3168;51.684;6.954;2023-05-10T06:09:36;13.50;99.90
6270;DHT22;3168;51.684;6.954;2023-05-10T06:12:02;13.60;99.90
6270;DHT22;3168;51.684;6.954;2023-05-10T06:14:28;13.60;99.90
6270;DHT22;3168;51.684;6.954;2023-05-10T06:16:54;13.70;99.90
6270;DHT22;3168;51.684;6.954;2023-05-10T06:19:20;13.60;99.90
6270;DHT22;3168;51.684;6.954;2023-05-10T06:21:46;13.60;99.90
6270;DHT22;3168;51.684;6.954;2023-05-10T06:24:12;13.60;99.90
6270;DHT22;3168;51.684;6.954;2023-05-10T06:26:38;13.70;99.90
6270;DHT22;3168;51.684;6.954;2023-05-10T06:29:03;13.70;99.90
6270;DHT22;3168;51.684;6.954;2023-05-10T06:31:30;13.80;99.90
6270;DHT22;3168;51.684;6.954;2023-05-10T06:33:56;13.80;99.90
6270;DHT22;3168;51.684;6.954;2023-05-10T06:36:22;13.90;99.90
6270;DHT22;3168;51.684;6.954;2023-05-10T06:38:47;14.00;99.90
6270;DHT22;3168;51.684;6.954;2023-05-10T06:41:14;14.00;99.90
6270;DHT22;3168;51.684;6.954;2023-05-10T06:43:40;14.00;99.90
6270;DHT22;3168;51.684;6.954;2023-05-10T06:46:06;14.00;99.90
6270;DHT22;3168;51.684;6.954;2023-05-10T06:48:32;14.10;99.90
6270;DHT22;3168;51.684;6.954;2023-05-10T06:50:58;14.00;99.90
6270;DHT22;3168;51.684;6.954;2023-05-10T06:53:23;14.10;99.90
6270;DHT22;3168;51.684;6.954;2023-05-10T06:55:49;14.10;99.90
6270;DHT22;3168;51.684;6.954;2023-05-10T06:58:15;14.00;97.90
6270;DHT22;3168;51.684;6.954;2023-05-10T07:00:41;14.20;96.90
6270;DHT22;3168;51.684;6.954;2023-05-10T07:03:07;14.00;92.80
6270;DHT22;3168;51.684;6.954;2023-05-10T07:05:33;14.10;93.90
6270;DHT22;3168;51.684;6.954;2023-05-10T07:07:59;14.30;93.00
6270;DHT22;3168;51.684;6.954;2023-05-10T07:10:24;14.30;90.10
6270;DHT22;3168;51.684;6.954;2023-05-10T07:12:50;14.40;89.20
6270;DHT22;3168;51.684;6.954;2023-05-10T07:15:16;14.40;82.20
6270;DHT22;3168;51.684;6.954;2023-05-10T07:17:42;14.50;83.80
6270;DHT22;3168;51.684;6.954;2023-05-10T07:20:08;14.50;82.10
6270;DHT22;3168;51.684;6.954;2023-05-10T07:22:34;14.60;82.10
6270;DHT22;3168;51.684;6.954;2023-05-10T07:25:00;14.60;75.20
6270;DHT22;3168;51.684;6.954;2023-05-10T07:27:26;14.60;74.30
6270;DHT22;3168;51.684;6.954;2023-05-10T07:29:52;14.70;65.30
6270;DHT22;3168;51.684;6.954;2023-05-10T07:32:18;14.60;58.10
6270;DHT22;3168;51.684;6.954;2023-05-10T07:34:43;14.50;59.60
6270;DHT22;3168;51.684;6.954;2023-05-10T07:37:09;14.60;62.50
6270;DHT22;3168;51.684;6.954;2023-05-10T07:39:35;14.60;56.00
6270;DHT22;3168;51.684;6.954;2023-05-10T07:42:01;14.80;62.60
6270;DHT22;3168;51.684;6.954;2023-05-10T07:44:27;15.00;61.20
6270;DHT22;3168;51.684;6.954;2023-05-10T07:46:53;14.90;53.80
6270;DHT22;3168;51.684;6.954;2023-05-10T07:49:18;14.90;49.90
6270;DHT22;3168;51.684;6.954;2023-05-10T07:51:44;15.00;51.80
6270;DHT22;3168;51.684;6.954;2023-05-10T07:54:10;14.90;48.60
6270;DHT22;3168;51.684;6.954;2023-05-10T07:56:36;15.00;54.50
6270;DHT22;3168;51.684;6.954;2023-05-10T07:59:02;15.00;48.90
6270;DHT22;3168;51.684;6.954;2023-05-10T08:01:29;15.00;48.50
6270;DHT22;3168;51.684;6.954;2023-05-10T08:03:54;15.30;47.30
6270;DHT22;3168;51.684;6.954;2023-05-10T08:06:20;15.30;35.40
6270;DHT22;3168;51.684;6.954;2023-05-10T08:08:46;15.20;32.90
6270;DHT22;3168;51.684;6.954;2023-05-10T08:11:11;15.40;31.40
6270;DHT22;3168;51.684;6.954;2023-05-10T08:13:37;15.40;24.50
6270;DHT22;3168;51.684;6.954;2023-05-10T08:16:03;15.60;25.80
6270;DHT22;3168;51.684;6.954;2023-05-10T08:18:29;15.50;20.10
6270;DHT22;3168;51.684;6.954;2023-05-10T08:20:55;15.40;19.20
6270;DHT22;3168;51.684;6.954;2023-05-10T08:23:21;15.40;11.30
6270;DHT22;3168;51.684;6.954;2023-05-10T08:25:47;15.50;17.20
6270;DHT22;3168;51.684;6.954;2023-05-10T08:28:12;15.80;21.20
6270;DHT22;3168;51.684;6.954;2023-05-10T08:30:38;16.00;14.20
6270;DHT22;3168;51.684;6.954;2023-05-10T08:33:04;16.00;6.40
6270;DHT22;3168;51.684;6.954;2023-05-10T08:35:30;15.90;1.00
6270;DHT22;3168;51.684;6.954;2023-05-10T08:37:56;16.00;5.00
6270;DHT22;3168;51.684;6.954;2023-05-10T08:40:22;16.10;1.00
6270;DHT22;3168;51.684;6.954;2023-05-10T08:42:51;15.90;1.00
6270;DHT22;3168;51.684;6.954;2023-05-10T08:45:13;15.90;6.10
6270;DHT22;3168;51.684;6.954;2023-05-10T08:47:39;15.90;8.60
6270;DHT22;3168;51.684;6.954;2023-05-10T08:50:06;16.10;9.00
6270;DHT22;3168;51.684;6.954;2023-05-10T08:52:32;16.30;1.00
6270;DHT22;3168;51.684;6.954;2023-05-10T08:54:58;16.30;1.00
6270;DHT22;3168;51.684;6.954;2023-05-10T08:57:24;16.30;1.00
6270;DHT22;3168;51.684;6.954;2023-05-10T08:59:50;16.10;1.00
6270;DHT22;3168;51.684;6.954;2023-05-10T09:02:16;16.00;1.00
6270;DHT22;3168;51.684;6.954;2023-05-10T09:04:42;15.80;1.00
6270;DHT22;3168;51.684;6.954;2023-05-10T09:07:07;15.70;1.00
6270;DHT22;3168;51.684;6.954;2023-05-10T09:09:33;15.60;1.00
6270;DHT22;3168;51.684;6.954;2023-05-10T09:11:59;15.70;3.20
6270;DHT22;3168;51.684;6.954;2023-05-10T09:14:25;15.60;2.70
6270;DHT22;3168;51.684;6.954;2023-05-10T09:16:51;15.70;2.90
6270;DHT22;3168;51.684;6.954;2023-05-10T09:19:17;15.70;1.00
6270;DHT22;3168;51.684;6.954;2023-05-10T09:21:42;15.90;1.00
6270;DHT22;3168;51.684;6.954;2023-05-10T09:24:08;15.90;1.00
6270;DHT22;3168;51.684;6.954;2023-05-10T09:26:35;15.70;3.30
6270;DHT22;3168;51.684;6.954;2023-05-10T09:29:02;15.70;1.00
6270;DHT22;3168;51.684;6.954;2023-05-10T09:34:06;15.70;1.00
6270;DHT22;3168;51.684;6.954;2023-05-10T09:36:31;16.10;1.00
6270;DHT22;3168;51.684;6.954;2023-05-10T09:38:57;16.10;1.00
6270;DHT22;3168;51.684;6.954;2023-05-10T09:41:23;16.10;1.00
6270;DHT22;3168;51.684;6.954;2023-05-10T09:43:49;16.00;1.00
6270;DHT22;3168;51.684;6.954;2023-05-10T09:46:15;15.80;1.00
6270;DHT22;3168;51.684;6.954;2023-05-10T09:48:42;16.00;1.00
6270;DHT22;3168;51.684;6.954;2023-05-10T09:51:07;16.00;1.00
6270;DHT22;3168;51.684;6.954;2023-05-10T09:53:33;15.90;1.00
6270;DHT22;3168;51.684;6.954;2023-05-10T09:55:59;15.80;1.00
6270;DHT22;3168;51.684;6.954;2023-05-10T09:58:25;15.90;1.00
6270;DHT22;3168;51.684;6.954;2023-05-10T10:00:51;15.90;1.00
6270;DHT22;3168;51.684;6.954;2023-05-10T10:03:18;16.00;1.00
6270;DHT22;3168;51.684;6.954;2023-05-10T10:05:43;15.80;1.00
6270;DHT22;3168;51.684;6.954;2023-05-10T10:08:09;15.70;1.00
6270;DHT22;3168;51.684;6.954;2023-05-10T10:10:34;15.80;1.00
6270;DHT22;3168;51.684;6.954;2023-05-10T10:13:01;15.80;1.00
6270;DHT22;3168;51.684;6.954;2023-05-10T10:15:27;15.80;1.00
6270;DHT22;3168;51.684;6.954;2023-05-10T10:17:53;15.80;1.00
6270;DHT22;3168;51.684;6.954;2023-05-10T10:20:19;15.90;1.00
6270;DHT22;3168;51.684;6.954;2023-05-10T10:22:44;16.00;1.00
6270;DHT22;3168;51.684;6.954;2023-05-10T10:25:11;15.90;1.00
6270;DHT22;3168;51.684;6.954;2023-05-10T10:28:09;15.80;1.00
6270;DHT22;3168;51.684;6.954;2023-05-10T10:30:43;15.90;1.00
6270;DHT22;3168;51.684;6.954;2023-05-10T10:35:46;16.30;1.00
6270;DHT22;3168;51.684;6.954;2023-05-10T10:38:12;16.20;1.00
6270;DHT22;3168;51.684;6.954;2023-05-10T10:40:39;16.40;1.00
6270;DHT22;3168;51.684;6.954;2023-05-10T10:45:40;16.40;1.00
6270;DHT22;3168;51.684;6.954;2023-05-10T10:50:44;16.50;1.00
6270;DHT22;3168;51.684;6.954;2023-05-10T10:53:10;16.40;1.00
6270;DHT22;3168;51.684;6.954;2023-05-10T10:55:36;16.40;1.00
6270;DHT22;3168;51.684;6.954;2023-05-10T10:58:01;16.40;1.00
6270;DHT22;3168;51.684;6.954;2023-05-10T11:00:28;16.40;1.00
6270;DHT22;3168;51.684;6.954;2023-05-10T11:02:58;16.50;1.00
6270;DHT22;3168;51.684;6.954;2023-05-10T11:05:24;16.30;1.00
6270;DHT22;3168;51.684;6.954;2023-05-10T11:07:52;16.60;1.00
6270;DHT22;3168;51.684;6.954;2023-05-10T11:10:19;16.50;1.00
6270;DHT22;3168;51.684;6.954;2023-05-10T11:13:06;16.40;1.00
6270;DHT22;3168;51.684;6.954;2023-05-10T11:15:33;16.10;1.00
6270;DHT22;3168;51.684;6.954;2023-05-10T11:17:58;15.80;1.00
6270;DHT22;3168;51.684;6.954;2023-05-10T11:20:27;15.80;1.00
6270;DHT22;3168;51.684;6.954;2023-05-10T11:22:50;15.70;1.00
6270;DHT22;3168;51.684;6.954;2023-05-10T11:25:16;15.90;1.00
6270;DHT22;3168;51.684;6.954;2023-05-10T11:27:42;16.00;1.00
6270;DHT22;3168;51.684;6.954;2023-05-10T11:30:09;16.00;1.00
6270;DHT22;3168;51.684;6.954;2023-05-10T11:32:34;16.20;1.00
6270;DHT22;3168;51.684;6.954;2023-05-10T11:35:00;16.30;1.00
6270;DHT22;3168;51.684;6.954;2023-05-10T11:37:28;16.30;1.00
6270;DHT22;3168;51.684;6.954;2023-05-10T11:39:51;16.20;1.00
6270;DHT22;3168;51.684;6.954;2023-05-10T11:42:17;15.90;1.00
6270;DHT22;3168;51.684;6.954;2023-05-10T11:44:45;15.70;1.00
6270;DHT22;3168;51.684;6.954;2023-05-10T11:47:09;15.80;1.00
6270;DHT22;3168;51.684;6.954;2023-05-10T11:49:35;15.90;1.00
6270;DHT22;3168;51.684;6.954;2023-05-10T11:52:05;16.00;1.00
6270;DHT22;3168;51.684;6.954;2023-05-10T11:54:30;16.10;1.00
6270;DHT22;3168;51.684;6.954;2023-05-10T11:56:56;16.40;1.00
6270;DHT22;3168;51.684;6.954;2023-05-10T11:59:22;16.50;1.00
6270;DHT22;3168;51.684;6.954;2023-05-10T12:01:48;16.30;1.00
6270;DHT22;3168;51.684;6.954;2023-05-10T12:04:14;16.60;1.00
6270;DHT22;3168;51.684;6.954;2023-05-10T12:06:40;16.60;1.00
6270;DHT22;3168;51.684;6.954;2023-05-10T12:09:06;16.60;1.00
6270;DHT22;3168;51.684;6.954;2023-05-10T12:11:31;16.70;1.00
6270;DHT22;3168;51.684;6.954;2023-05-10T12:13:57;16.90;1.00
6270;DHT22;3168;51.684;6.954;2023-05-10T12:16:25;17.00;1.00
6270;DHT22;3168;51.684;6.954;2023-05-10T12:18:51;17.00;1.00
6270;DHT22;3168;51.684;6.954;2023-05-10T12:21:17;17.50;1.00
6270;DHT22;3168;51.684;6.954;2023-05-10T12:23:44;17.50;1.00
6270;DHT22;3168;51.684;6.954;2023-05-10T12:26:09;17.50;1.00
6270;DHT22;3168;51.684;6.954;2023-05-10T12:28:35;17.50;1.00
6270;DHT22;3168;51.684;6.954;2023-05-10T12:31:01;17.50;1.00
6270;DHT22;3168;51.684;6.954;2023-05-10T12:33:34;17.20;1.00
6270;DHT22;3168;51.684;6.954;2023-05-10T12:36:01;17.10;1.00
6270;DHT22;3168;51.684;6.954;2023-05-10T12:38:31;17.00;1.00
6270;DHT22;3168;51.684;6.954;2023-05-10T12:41:03;17.10;1.00
6270;DHT22;3168;51.684;6.954;2023-05-10T12:43:30;17.20;1.00
6270;DHT22;3168;51.684;6.954;2023-05-10T12:45:55;17.10;1.00
6270;DHT22;3168;51.684;6.954;2023-05-10T12:48:21;17.00;1.00
6270;DHT22;3168;51.684;6.954;2023-05-10T12:50:48;17.00;1.00
6270;DHT22;3168;51.684;6.954;2023-05-10T12:53:14;17.00;1.00
6270;DHT22;3168;51.684;6.954;2023-05-10T12:55:39;16.90;1.00
6270;DHT22;3168;51.684;6.954;2023-05-10T12:58:05;17.00;1.00
6270;DHT22;3168;51.684;6.954;2023-05-10T13:00:31;17.20;1.00
6270;DHT22;3168;51.684;6.954;2023-05-10T13:02:58;17.80;1.00
6270;DHT22;3168;51.684;6.954;2023-05-10T13:05:23;17.80;1.00
6270;DHT22;3168;51.684;6.954;2023-05-10T13:07:49;18.00;1.00
6270;DHT22;3168;51.684;6.954;2023-05-10T13:10:16;17.90;1.00
6270;DHT22;3168;51.684;6.954;2023-05-10T13:12:42;17.90;1.00
6270;DHT22;3168;51.684;6.954;2023-05-10T13:15:08;17.60;1.00
6270;DHT22;3168;51.684;6.954;2023-05-10T13:17:34;17.60;1.00
6270;DHT22;3168;51.684;6.954;2023-05-10T13:20:00;17.90;1.00
6270;DHT22;3168;51.684;6.954;2023-05-10T13:22:26;18.30;1.00
6270;DHT22;3168;51.684;6.954;2023-05-10T13:24:52;18.10;1.00
6270;DHT22;3168;51.684;6.954;2023-05-10T13:27:18;18.00;1.00
6270;DHT22;3168;51.684;6.954;2023-05-10T13:29:44;18.10;1.00
6270;DHT22;3168;51.684;6.954;2023-05-10T13:32:09;18.50;1.00
6270;DHT22;3168;51.684;6.954;2023-05-10T13:34:35;18.40;1.00
6270;DHT22;3168;51.684;6.954;2023-05-10T13:37:02;18.40;1.00
6270;DHT22;3168;51.684;6.954;2023-05-10T13:39:28;18.40;1.00
6270;DHT22;3168;51.684;6.954;2023-05-10T13:41:54;18.10;1.00
6270;DHT22;3168;51.684;6.954;2023-05-10T13:44:19;18.10;1.00
6270;DHT22;3168;51.684;6.954;2023-05-10T13:46:45;17.90;1.00
6270;DHT22;3168;51.684;6.954;2023-05-10T13:49:11;18.00;1.00
6270;DHT22;3168;51.684;6.954;2023-05-10T13:51:37;17.80;1.00
6270;DHT22;3168;51.684;6.954;2023-05-10T13:54:03;17.50;1.00
6270;DHT22;3168;51.684;6.954;2023-05-10T13:56:29;17.80;1.00
6270;DHT22;3168;51.684;6.954;2023-05-10T13:58:56;17.60;1.00
6270;DHT22;3168;51.684;6.954;2023-05-10T14:01:21;17.40;1.00
6270;DHT22;3168;51.684;6.954;2023-05-10T14:03:46;17.30;1.00
6270;DHT22;3168;51.684;6.954;2023-05-10T14:06:12;17.30;1.00
6270;DHT22;3168;51.684;6.954;2023-05-10T14:08:38;17.20;1.00
6270;DHT22;3168;51.684;6.954;2023-05-10T14:11:04;17.10;1.00
6270;DHT22;3168;51.684;6.954;2023-05-10T14:13:31;17.10;1.00
6270;DHT22;3168;51.684;6.954;2023-05-10T14:15:58;17.10;1.00
6270;DHT22;3168;51.684;6.954;2023-05-10T14:18:24;17.10;1.00
6270;DHT22;3168;51.684;6.954;2023-05-10T14:20:50;17.10;1.00
6270;DHT22;3168;51.684;6.954;2023-05-10T14:23:16;17.30;1.00
6270;DHT22;3168;51.684;6.954;2023-05-10T14:25:41;17.80;1.00
6270;DHT22;3168;51.684;6.954;2023-05-10T14:28:07;18.40;1.00
6270;DHT22;3168;51.684;6.954;2023-05-10T14:30:33;18.60;1.00
6270;DHT22;3168;51.684;6.954;2023-05-10T14:33:01;18.80;1.00
6270;DHT22;3168;51.684;6.954;2023-05-10T14:35:26;18.50;1.00
6270;DHT22;3168;51.684;6.954;2023-05-10T14:37:52;17.90;1.00
6270;DHT22;3168;51.684;6.954;2023-05-10T14:40:18;18.10;1.00
6270;DHT22;3168;51.684;6.954;2023-05-10T14:42:44;18.20;1.00
6270;DHT22;3168;51.684;6.954;2023-05-10T14:45:10;18.30;1.00
6270;DHT22;3168;51.684;6.954;2023-05-10T14:47:36;18.30;1.00
6270;DHT22;3168;51.684;6.954;2023-05-10T14:50:02;18.10;1.00
6270;DHT22;3168;51.684;6.954;2023-05-10T14:52:27;17.90;1.00
6270;DHT22;3168;51.684;6.954;2023-05-10T14:54:53;17.80;1.00
6270;DHT22;3168;51.684;6.954;2023-05-10T14:57:19;17.90;1.00
6270;DHT22;3168;51.684;6.954;2023-05-10T14:59:45;18.00;1.00
6270;DHT22;3168;51.684;6.954;2023-05-10T15:02:11;18.20;1.00
6270;DHT22;3168;51.684;6.954;2023-05-10T15:04:37;17.60;1.00
6270;DHT22;3168;51.684;6.954;2023-05-10T15:07:03;17.60;1.00
6270;DHT22;3168;51.684;6.954;2023-05-10T15:09:29;17.60;1.00
6270;DHT22;3168;51.684;6.954;2023-05-10T15:11:55;18.00;1.00
6270;DHT22;3168;51.684;6.954;2023-05-10T15:14:21;17.70;1.00
6270;DHT22;3168;51.684;6.954;2023-05-10T15:16:47;17.70;1.00
6270;DHT22;3168;51.684;6.954;2023-05-10T15:19:13;17.70;1.00
6270;DHT22;3168;51.684;6.954;2023-05-10T15:21:39;17.50;1.00
6270;DHT22;3168;51.684;6.954;2023-05-10T15:24:08;17.70;1.00
6270;DHT22;3168;51.684;6.954;2023-05-10T15:26:33;17.50;1.00
6270;DHT22;3168;51.684;6.954;2023-05-10T15:28:59;17.50;1.00
6270;DHT22;3168;51.684;6.954;2023-05-10T15:31:25;17.60;1.00
6270;DHT22;3168;51.684;6.954;2023-05-10T15:33:51;17.80;1.00
6270;DHT22;3168;51.684;6.954;2023-05-10T15:36:17;17.90;1.00
6270;DHT22;3168;51.684;6.954;2023-05-10T15:38:43;17.90;1.00
6270;DHT22;3168;51.684;6.954;2023-05-10T15:41:08;17.90;1.00
6270;DHT22;3168;51.684;6.954;2023-05-10T15:43:34;17.80;1.00
6270;DHT22;3168;51.684;6.954;2023-05-10T15:46:00;17.80;1.00
6270;DHT22;3168;51.684;6.954;2023-05-10T15:48:26;17.60;1.00
6270;DHT22;3168;51.684;6.954;2023-05-10T15:50:52;17.60;1.00
6270;DHT22;3168;51.684;6.954;2023-05-10T15:53:18;17.60;1.00
6270;DHT22;3168;51.684;6.954;2023-05-10T15:55:43;17.60;1.00
6270;DHT22;3168;51.684;6.954;2023-05-10T15:58:10;17.50;1.00
6270;DHT22;3168;51.684;6.954;2023-05-10T16:00:36;17.40;1.00
6270;DHT22;3168;51.684;6.954;2023-05-10T16:03:02;17.40;1.00
6270;DHT22;3168;51.684;6.954;2023-05-10T16:05:28;17.50;1.00
6270;DHT22;3168;51.684;6.954;2023-05-10T16:07:54;17.50;1.00
6270;DHT22;3168;51.684;6.954;2023-05-10T16:10:20;17.80;1.00
6270;DHT22;3168;51.684;6.954;2023-05-10T16:12:45;18.00;1.00
6270;DHT22;3168;51.684;6.954;2023-05-10T16:15:11;18.20;1.00
6270;DHT22;3168;51.684;6.954;2023-05-10T16:17:37;18.20;1.00